Terminal Aerodrome Forecast
Issued by NWS St Louis, MO

Home | Current Version | Previous Version | Text Only | Print | Product List | Glossary On
Versions: 1 2 3 4 5 6 7 8 9 10 11 12 13 14 15 16 17
000
FTUS43 KLSX 200900 AAA
TAFCOU
TAF AMD
KCOU 200913Z 2009/2106 07012KT P6SM VCSH BKN050 OVC080
     FM201100 06012KT 6SM -RA OVC030
     FM201400 06010KT 3SM -RA BR BKN006 OVC014
     FM201600 05009KT 2SM -DZ BR OVC006
     FM210100 01006KT 4SM BR OVC015=

USA.gov is the U.S. government's official web portal to all federal, state and local government web resources and services.